Time;durP1;ratioP1;P1;durP2;ratioP2;P2;SDS_P1;SDS_P2;PMS_P1;PMS_P2;Temp;Humidity;BMP_temperature;BMP_pressure;BME280_temperature;BME280_humidity;BME280_pressure;Samples;Min_cycle;Max_cycle;Signal;HPM_P1;HPM_P2
2022/05/02 00:00:13;;;;;;;5.43;3.17;;;;;;;11.89;78.38;95112.47;5073053;28;20051;-69
2022/05/02 00:02:40;;;;;;;5.57;2.65;;;;;;;11.85;78.77;95117.34;5068634;28;20056;-68
2022/05/02 00:05:09;;;;;;;3.40;2.40;;;;;;;11.81;78.74;95116.22;5061867;28;20048;-67
2022/05/02 00:07:36;;;;;;;4.32;2.50;;;;;;;11.79;79.15;95119.06;5046654;28;20053;-67
2022/05/02 00:10:04;;;;;;;7.68;2.88;;;;;;;11.77;79.29;95115.88;5077151;28;20399;-67
2022/05/02 00:12:32;;;;;;;4.68;2.92;;;;;;;11.73;79.61;95113.97;5071333;28;20043;-67
2022/05/02 00:14:59;;;;;;;5.07;2.92;;;;;;;11.75;80.29;95117.94;5068908;28;20735;-69
2022/05/02 00:20:11;;;;;;;4.05;3.08;;;;;;;11.61;81.68;95112.19;5049112;28;20047;-68
2022/05/02 00:22:40;;;;;;;3.72;2.65;;;;;;;11.60;82.08;95109.81;5072033;28;20044;-68
2022/05/02 00:25:08;;;;;;;5.55;3.17;;;;;;;11.57;81.69;95105.84;5054247;28;20103;-67
2022/05/02 00:27:37;;;;;;;4.85;2.85;;;;;;;11.48;83.19;95107.22;5076555;28;20051;-68
2022/05/02 00:30:06;;;;;;;5.35;3.10;;;;;;;11.36;83.64;95093.38;5063577;28;20532;-68
2022/05/02 00:32:34;;;;;;;5.93;3.05;;;;;;;11.41;83.25;95107.31;5062214;28;20044;-67
2022/05/02 00:35:01;;;;;;;4.55;3.00;;;;;;;11.41;83.10;95111.75;5076037;28;20341;-67
2022/05/02 00:37:29;;;;;;;5.57;2.97;;;;;;;11.23;83.81;95095.22;5064427;28;20579;-67
2022/05/02 00:39:56;;;;;;;5.32;2.42;;;;;;;11.28;84.03;95103.16;5043127;28;20123;-67
2022/05/02 00:42:23;;;;;;;4.65;2.95;;;;;;;11.24;84.12;95090.81;5073027;28;20051;-67
2022/05/02 00:44:50;;;;;;;5.22;2.95;;;;;;;11.26;84.19;95105.19;5070446;28;20043;-67
2022/05/02 00:47:20;;;;;;;4.60;2.58;;;;;;;11.22;84.80;95113.72;5077884;28;20044;-67
2022/05/02 00:49:50;;;;;;;3.90;2.55;;;;;;;11.19;84.43;95109.72;5041367;28;20052;-67
2022/05/02 00:52:18;;;;;;;3.40;2.80;;;;;;;11.16;84.49;95104.97;5055866;28;20041;-67
2022/05/02 00:54:46;;;;;;;4.22;2.47;;;;;;;11.12;84.76;95103.84;5071127;28;20045;-67
2022/05/02 00:57:15;;;;;;;3.55;2.60;;;;;;;11.04;84.37;95101.59;5068493;28;20105;-66
2022/05/02 00:59:43;;;;;;;5.20;3.03;;;;;;;10.96;84.59;95094.09;5050074;28;20165;-67
2022/05/02 01:02:13;;;;;;;4.80;3.05;;;;;;;10.84;86.00;95097.50;5068589;28;20075;-67
2022/05/02 01:04:42;;;;;;;5.38;3.03;;;;;;;10.74;85.88;95081.63;5061069;28;20029;-67
2022/05/02 01:07:10;;;;;;;8.82;3.60;;;;;;;10.80;86.19;95085.91;5069706;28;20047;-68
2022/05/02 01:09:42;;;;;;;5.75;3.20;;;;;;;10.77;86.37;95089.00;5063571;28;20044;-67
2022/05/02 01:12:10;;;;;;;5.03;3.08;;;;;;;10.62;87.15;95086.00;5063654;28;20044;-67
2022/05/02 01:14:38;;;;;;;5.70;3.20;;;;;;;10.61;87.30;95087.84;5051626;28;20041;-67
2022/05/02 01:17:06;;;;;;;7.30;3.15;;;;;;;10.58;87.87;95090.09;5071153;28;20051;-68
2022/05/02 01:19:34;;;;;;;5.50;3.40;;;;;;;10.56;87.75;95086.94;5082952;28;20127;-68
2022/05/02 01:22:02;;;;;;;4.70;2.95;;;;;;;10.49;88.44;95084.41;5053334;28;20052;-67
2022/05/02 01:24:38;;;;;;;5.65;4.05;;;;;;;10.37;89.22;95080.97;5068381;28;20052;-67
2022/05/02 01:27:07;;;;;;;8.50;3.58;;;;;;;10.28;89.54;95072.66;5057900;28;20048;-68
2022/05/02 01:29:35;;;;;;;5.25;3.67;;;;;;;10.29;89.67;95074.28;5065252;28;20444;-68
2022/05/02 01:32:08;;;;;;;5.00;3.17;;;;;;;10.14;90.35;95072.88;5062119;28;20097;-67
2022/05/02 01:34:36;;;;;;;7.40;3.53;;;;;;;10.08;91.12;95063.34;5053305;28;20044;-68
2022/05/02 01:37:03;;;;;;;5.45;4.13;;;;;;;10.09;91.03;95058.94;5078529;28;20493;-68
2022/05/02 01:39:30;;;;;;;8.57;3.70;;;;;;;10.07;90.37;95053.94;5049163;28;20094;-68
2022/05/02 01:42:05;;;;;;;4.35;2.95;;;;;;;10.00;90.15;95049.84;5068228;28;20685;-68
2022/05/02 01:44:33;;;;;;;5.63;3.45;;;;;;;9.90;90.31;95050.38;5076709;28;20041;-68
2022/05/02 01:47:00;;;;;;;5.60;3.50;;;;;;;9.82;91.04;95043.69;5076956;28;20410;-68
2022/05/02 01:49:27;;;;;;;5.38;3.60;;;;;;;9.79;91.27;95043.31;5067201;28;20052;-67
2022/05/02 01:51:57;;;;;;;5.20;3.45;;;;;;;9.75;91.44;95043.75;5051056;28;20044;-68
2022/05/02 01:54:25;;;;;;;6.10;3.72;;;;;;;9.72;92.05;95044.22;5077768;28;20071;-69
2022/05/02 01:56:53;;;;;;;8.25;4.13;;;;;;;9.71;92.22;95040.03;5070007;28;20044;-68
2022/05/02 01:59:19;;;;;;;7.50;4.80;;;;;;;9.71;92.04;95032.22;5059553;28;20044;-69
2022/05/02 02:01:46;;;;;;;5.03;3.63;;;;;;;9.67;92.00;95038.88;5058632;28;20807;-69
2022/05/02 02:07:00;;;;;;;7.22;3.85;;;;;;;9.60;92.51;95035.56;5073215;28;20124;-69
2022/05/02 02:09:26;;;;;;;5.20;3.30;;;;;;;9.56;92.40;95026.59;5063320;28;20041;-69
2022/05/02 02:11:53;;;;;;;7.85;3.78;;;;;;;9.59;92.59;95028.75;5051484;28;20108;-69
2022/05/02 02:14:20;;;;;;;7.40;3.83;;;;;;;9.57;92.09;95021.19;5076715;28;20114;-69
2022/05/02 02:16:47;;;;;;;4.93;3.15;;;;;;;9.54;92.47;95026.03;5074246;28;20048;-68
2022/05/02 02:19:14;;;;;;;4.30;3.30;;;;;;;9.43;92.59;95030.16;5055008;28;20069;-69
2022/05/02 02:21:41;;;;;;;6.15;3.63;;;;;;;9.28;92.93;95012.34;5065171;28;20506;-68
2022/05/02 02:24:08;;;;;;;6.15;3.67;;;;;;;9.26;92.69;95018.78;5072081;28;20041;-69
2022/05/02 02:26:35;;;;;;;4.93;3.58;;;;;;;9.21;93.27;95011.63;5062523;28;20040;-69
2022/05/02 02:29:02;;;;;;;5.13;3.45;;;;;;;9.15;93.15;95023.69;5071161;28;20041;-69
2022/05/02 02:31:29;;;;;;;5.22;3.53;;;;;;;9.06;92.88;95003.41;5048623;28;20055;-69
2022/05/02 02:33:56;;;;;;;7.45;3.42;;;;;;;8.97;93.45;95003.69;5063007;28;20127;-69
2022/05/02 02:36:22;;;;;;;5.35;3.25;;;;;;;8.93;93.49;95010.34;5070085;28;20543;-69
2022/05/02 02:38:49;;;;;;;5.13;2.95;;;;;;;8.86;93.62;94994.03;5073336;28;20048;-69
2022/05/02 02:41:16;;;;;;;5.05;3.78;;;;;;;8.68;94.00;94988.78;5062954;28;20049;-69
2022/05/02 02:43:43;;;;;;;7.88;3.35;;;;;;;8.71;94.01;94996.16;5077933;28;20051;-69
2022/05/02 02:46:10;;;;;;;5.72;3.60;;;;;;;8.57;94.57;94991.09;5054856;28;20155;-69
2022/05/02 02:48:37;;;;;;;5.65;3.60;;;;;;;8.46;96.30;94991.78;5073508;28;20040;-69
2022/05/02 02:51:03;;;;;;;5.25;3.60;;;;;;;8.47;97.00;94990.78;5051002;28;20100;-69
2022/05/02 02:53:30;;;;;;;8.02;3.65;;;;;;;8.47;96.86;94990.78;5043958;28;20045;-69
2022/05/02 02:55:57;;;;;;;5.70;3.30;;;;;;;8.43;97.03;94994.81;5076396;28;20834;-69
2022/05/02 02:58:24;;;;;;;5.32;3.42;;;;;;;8.29;97.42;94998.50;5068968;28;20585;-68
2022/05/02 03:00:52;;;;;;;6.85;3.90;;;;;;;8.24;97.46;94992.13;5058561;28;20050;-68
2022/05/02 03:03:19;;;;;;;5.63;3.58;;;;;;;8.07;98.74;94980.72;5072756;28;20039;-68
2022/05/02 03:06:02;;;;;;;5.70;3.72;;;;;;;8.04;99.54;94986.31;5066352;28;20422;-68
2022/05/02 03:08:31;;;;;;;4.90;2.80;;;;;;;8.08;99.31;94989.28;5072532;28;20035;-68
2022/05/02 03:10:59;;;;;;;5.43;3.75;;;;;;;7.98;100.00;94992.34;5063468;28;20046;-68
2022/05/02 03:13:26;;;;;;;4.50;3.08;;;;;;;7.97;100.00;94988.16;5077269;28;20052;-68
2022/05/02 03:15:54;;;;;;;9.75;3.33;;;;;;;7.89;100.00;94988.44;5066582;28;20043;-68
2022/05/02 03:18:22;;;;;;;6.32;3.40;;;;;;;7.84;100.00;94976.84;5068834;28;20045;-68
2022/05/02 03:20:49;;;;;;;6.63;3.90;;;;;;;7.87;100.00;94983.44;5051809;28;20048;-68
2022/05/02 03:23:16;;;;;;;6.78;3.08;;;;;;;7.86;100.00;94984.44;5061476;28;20044;-68
2022/05/02 03:25:43;;;;;;;4.38;2.95;;;;;;;7.81;100.00;94982.50;5044198;28;20082;-68
2022/05/02 03:28:11;;;;;;;5.55;2.90;;;;;;;7.83;100.00;94988.25;5047632;28;20037;-68
2022/05/02 03:30:38;;;;;;;5.40;3.50;;;;;;;7.77;100.00;94985.69;5051769;28;20434;-68
2022/05/02 03:33:05;;;;;;;5.65;3.58;;;;;;;7.80;100.00;94993.84;5055695;28;20644;-68
2022/05/02 03:35:32;;;;;;;4.95;3.20;;;;;;;7.76;100.00;94979.72;5078881;28;20044;-68
2022/05/02 03:37:59;;;;;;;6.43;3.88;;;;;;;7.83;100.00;94988.25;5045767;28;20049;-69
2022/05/02 03:40:26;;;;;;;7.57;3.45;;;;;;;7.75;100.00;94978.13;5062132;28;20059;-69
2022/05/02 03:42:53;;;;;;;5.95;3.70;;;;;;;7.85;100.00;94988.84;5070266;28;20060;-68
2022/05/02 03:45:20;;;;;;;6.07;3.38;;;;;;;7.89;100.00;94988.44;5061477;28;20063;-68
2022/05/02 03:47:46;;;;;;;4.55;3.08;;;;;;;7.81;100.00;94982.50;5079459;28;20047;-68
2022/05/02 03:50:13;;;;;;;5.68;3.63;;;;;;;7.89;100.00;94993.59;5038924;28;20476;-68
2022/05/02 03:52:40;;;;;;;6.05;3.47;;;;;;;7.93;100.00;94994.78;5044049;28;20044;-68
2022/05/02 03:55:07;;;;;;;5.25;3.38;;;;;;;7.95;100.00;94984.97;5064359;28;20120;-69
2022/05/02 03:57:34;;;;;;;5.30;3.42;;;;;;;7.97;100.00;94991.53;5078587;28;20053;-69
2022/05/02 04:00:01;;;;;;;6.63;4.00;;;;;;;8.01;100.00;94992.72;5057029;28;20093;-68
2022/05/02 04:02:38;;;;;;;7.20;3.90;;;;;;;8.12;100.00;94991.25;5050571;28;20694;-68
2022/05/02 04:05:06;;;;;;;6.75;3.15;;;;;;;8.18;100.00;94999.97;5054446;28;20040;-68
2022/05/02 04:07:34;;;;;;;6.43;3.53;;;;;;;8.23;100.00;94985.38;5079451;28;20040;-68
2022/05/02 04:10:01;;;;;;;4.70;3.20;;;;;;;8.24;100.00;94980.97;5061606;28;20045;-68
2022/05/02 04:12:39;;;;;;;5.32;3.40;;;;;;;8.32;100.00;94998.06;5085432;28;20715;-68
2022/05/02 04:15:09;;;;;;;6.63;3.65;;;;;;;8.33;100.00;94989.28;5070577;28;20041;-68
2022/05/02 04:17:37;;;;;;;5.35;3.55;;;;;;;8.38;100.00;94982.44;5079998;28;20052;-67
2022/05/02 04:20:06;;;;;;;5.57;3.70;;;;;;;8.50;100.00;94987.78;5049942;28;20044;-68
2022/05/02 04:22:34;;;;;;;8.35;4.22;;;;;;;8.58;100.00;94987.47;5064649;28;20129;-68
2022/05/02 04:25:01;;;;;;;7.43;4.38;;;;;;;8.67;100.00;94995.00;5074394;28;20062;-67
2022/05/02 04:27:28;;;;;;;6.57;4.60;;;;;;;8.78;100.00;94997.69;5079790;28;20410;-67
2022/05/02 04:29:55;;;;;;;5.93;4.00;;;;;;;8.88;99.81;95001.59;5043060;28;20041;-67
2022/05/02 04:32:22;;;;;;;5.75;3.67;;;;;;;9.01;99.00;95000.66;5050304;28;20036;-67
2022/05/02 04:34:49;;;;;;;6.63;3.78;;;;;;;8.89;98.68;94975.38;5073396;28;20048;-67
2022/05/02 04:37:17;;;;;;;6.78;3.85;;;;;;;9.16;98.40;95001.09;5066904;28;20603;-67
2022/05/02 04:39:44;;;;;;;9.32;4.60;;;;;;;9.33;97.84;95004.69;5060439;28;20498;-68
2022/05/02 04:42:11;;;;;;;10.57;4.18;;;;;;;9.44;97.66;95010.16;5046527;28;20809;-67
2022/05/02 04:44:39;;;;;;;4.97;3.33;;;;;;;9.55;96.47;95001.63;5062538;28;20604;-67
2022/05/02 04:47:06;;;;;;;5.72;3.97;;;;;;;9.61;96.20;95000.72;5089909;28;20113;-67
2022/05/02 04:49:33;;;;;;;6.45;4.10;;;;;;;9.63;95.56;94992.72;5065540;28;20047;-68
2022/05/02 04:52:00;;;;;;;6.78;3.78;;;;;;;9.76;95.07;94997.75;5069774;28;20051;-67
2022/05/02 04:54:27;;;;;;;5.60;3.78;;;;;;;9.81;94.14;95000.47;5077643;28;20076;-67
2022/05/02 04:56:55;;;;;;;5.03;2.90;;;;;;;9.88;93.50;95000.38;5072257;28;20053;-67
2022/05/02 04:59:29;;;;;;;6.72;4.30;;;;;;;9.93;92.43;94982.28;5051086;28;20117;-67
2022/05/02 05:01:58;;;;;;;5.78;3.65;;;;;;;10.21;92.56;95006.91;5070066;28;20623;-67
2022/05/02 05:04:26;;;;;;;5.65;3.70;;;;;;;10.19;90.79;94990.72;5076816;28;20927;-66
2022/05/02 05:06:53;;;;;;;4.75;3.28;;;;;;;10.39;90.01;94995.63;5079454;28;20040;-67
2022/05/02 05:09:20;;;;;;;4.82;3.80;;;;;;;10.47;89.91;94998.69;5069165;28;20055;-67
2022/05/02 05:12:00;;;;;;;7.78;3.88;;;;;;;10.60;89.10;95002.88;5082532;28;20126;-67
2022/05/02 05:18:02;;;;;;;6.20;4.03;;;;;;;10.79;86.91;95000.97;5081624;28;20044;-67
2022/05/02 05:20:35;;;;;;;11.32;5.43;;;;;;;10.92;85.46;94993.94;5064599;28;20032;-67
2022/05/02 05:23:30;;;;;;;7.32;3.65;;;;;;;11.01;85.31;94984.75;5052095;28;20052;-67
2022/05/02 05:26:09;;;;;;;3.80;2.63;;;;;;;11.07;82.52;94983.81;5070706;28;20024;-66
2022/05/02 05:28:45;;;;;;;6.78;2.97;;;;;;;11.16;82.21;94979.84;5070295;28;20561;-68
2022/05/02 05:31:35;;;;;;;5.53;2.85;;;;;;;11.24;80.77;94987.31;5061009;28;20661;-68
2022/05/02 05:34:07;;;;;;;4.82;3.33;;;;;;;11.28;79.42;94988.41;5070854;28;20143;-68
2022/05/02 05:36:59;;;;;;;5.10;3.05;;;;;;;11.43;78.98;94997.56;5067793;28;20079;-68
2022/05/02 05:39:28;;;;;;;10.82;3.55;;;;;;;11.49;78.81;94991.44;5077450;28;20058;-68
2022/05/02 05:42:10;;;;;;;6.07;3.63;;;;;;;11.59;78.78;94988.22;5078443;28;20762;-68
2022/05/02 05:45:00;;;;;;;5.97;2.88;;;;;;;11.73;77.51;94989.53;5073348;28;20048;-68
2022/05/02 05:47:51;;;;;;;4.13;2.75;;;;;;;11.91;76.58;94983.34;5082933;28;20868;-68
2022/05/02 05:50:28;;;;;;;4.70;2.75;;;;;;;12.14;75.82;94990.25;5062966;28;20557;-68
2022/05/02 05:53:08;;;;;;;4.88;2.55;;;;;;;12.11;74.40;94972.44;5081286;28;20055;-68
2022/05/02 05:56:13;;;;;;;4.25;2.78;;;;;;;12.33;74.57;94988.19;5076895;28;20036;-69
2022/05/02 05:58:52;;;;;;;4.00;2.70;;;;;;;12.37;72.31;94984.09;5044039;28;20599;-69
2022/05/02 06:01:33;;;;;;;3.83;2.50;;;;;;;12.39;72.98;94982.03;5066899;28;20543;-68
2022/05/02 06:04:06;;;;;;;3.58;2.28;;;;;;;12.49;71.84;94978.00;5079476;28;20045;-69
2022/05/02 06:06:36;;;;;;;2.67;2.20;;;;;;;12.55;71.31;94972.59;5083295;28;20111;-68
2022/05/02 06:09:05;;;;;;;7.75;2.20;;;;;;;12.62;71.29;94965.38;5079569;28;20050;-68
2022/05/02 06:11:35;;;;;;;6.18;3.58;;;;;;;12.69;71.72;94967.03;5067658;28;20131;-68
2022/05/02 06:14:03;;;;;;;6.25;3.55;;;;;;;12.78;70.89;94969.00;5078754;28;20051;-69
2022/05/02 06:19:27;;;;;;;5.93;2.90;;;;;;;12.84;71.11;94966.44;5075171;28;20042;-68
2022/05/02 06:21:55;;;;;;;3.40;2.38;;;;;;;12.97;70.66;94960.88;5073779;28;20603;-68
2022/05/02 06:24:28;;;;;;;3.42;2.30;;;;;;;13.10;70.11;94965.75;5076940;28;20063;-68
2022/05/02 06:26:55;;;;;;;5.32;2.58;;;;;;;13.16;69.98;94963.97;5077824;28;20036;-69
2022/05/02 06:29:23;;;;;;;4.70;2.75;;;;;;;13.26;69.46;94947.63;5078835;28;20125;-69
2022/05/02 06:31:53;;;;;;;4.18;2.50;;;;;;;13.46;69.57;94963.56;5073276;28;20041;-69
2022/05/02 06:34:27;;;;;;;5.75;2.80;;;;;;;13.70;68.82;94965.91;5092646;28;20031;-68
2022/05/02 06:37:17;;;;;;;5.13;2.60;;;;;;;13.84;67.66;94959.22;5076028;28;20060;-68
2022/05/02 06:39:56;;;;;;;3.28;2.47;;;;;;;13.90;66.47;94953.03;5077300;28;20036;-68
2022/05/02 06:42:42;;;;;;;5.20;2.22;;;;;;;13.96;65.56;94949.41;5066364;28;20036;-68
2022/05/02 06:45:45;;;;;;;5.95;3.35;;;;;;;14.12;66.85;94947.69;5073759;28;20526;-68
2022/05/02 06:48:31;;;;;;;4.63;2.78;;;;;;;14.05;66.44;94943.72;5067514;28;20747;-68
2022/05/02 06:51:06;;;;;;;2.83;2.15;;;;;;;13.93;67.43;94942.03;5070128;28;20044;-68
2022/05/02 06:54:02;;;;;;;8.00;3.45;;;;;;;14.11;67.38;94947.94;5074729;28;20036;-69
2022/05/02 06:56:50;;;;;;;6.40;2.80;;;;;;;14.24;64.70;94931.81;5061602;28;20723;-69
2022/05/02 06:59:34;;;;;;;6.32;2.95;;;;;;;14.50;63.72;94935.41;5061548;28;20087;-69
2022/05/02 07:02:12;;;;;;;5.03;2.92;;;;;;;14.58;61.29;94922.88;5060111;28;20056;-69
2022/05/02 07:04:43;;;;;;;3.25;2.28;;;;;;;14.77;61.03;94933.75;5073661;28;20781;-69
2022/05/02 07:07:23;;;;;;;3.88;2.47;;;;;;;14.83;60.02;94932.72;5080592;28;20094;-69
2022/05/02 07:10:05;;;;;;;6.18;2.78;;;;;;;15.20;59.16;94926.59;5071809;28;20133;-69
2022/05/02 07:12:38;;;;;;;5.85;2.42;;;;;;;15.44;59.26;94922.47;5080106;28;20048;-69
2022/05/02 07:15:12;;;;;;;12.88;2.95;;;;;;;15.74;55.52;94926.22;5080164;28;20052;-69
2022/05/02 07:17:42;;;;;;;4.28;2.30;;;;;;;15.99;56.85;94927.28;5074866;28;20043;-69
2022/05/02 07:20:37;;;;;;;3.83;2.50;;;;;;;16.13;53.32;94917.84;5067090;28;20091;-69
2022/05/02 07:23:16;;;;;;;13.30;2.95;;;;;;;16.39;54.11;94928.34;5075753;28;20029;-69
2022/05/02 07:26:00;;;;;;;3.78;2.60;;;;;;;16.61;53.22;94926.19;5071488;28;20522;-69
2022/05/02 07:28:40;;;;;;;4.40;2.83;;;;;;;16.66;51.72;94908.84;5048247;28;20052;-69
2022/05/02 07:31:09;;;;;;;5.65;3.40;;;;;;;16.67;51.71;94926.19;5073115;28;20054;-69
2022/05/02 07:33:38;;;;;;;5.50;3.80;;;;;;;16.49;50.80;94925.69;5076964;28;20051;-69
2022/05/02 07:36:06;;;;;;;7.00;3.60;;;;;;;16.55;51.90;94916.75;5049561;28;20040;-70
2022/05/02 07:38:35;;;;;;;5.22;3.63;;;;;;;16.81;52.04;94916.69;5067294;28;20079;-69
2022/05/02 07:41:22;;;;;;;10.00;3.72;;;;;;;16.84;49.42;94910.94;5055688;28;20049;-69
2022/05/02 07:44:03;;;;;;;6.18;4.35;;;;;;;16.84;49.97;94915.41;5080073;28;20050;-69
2022/05/02 07:46:41;;;;;;;12.88;3.95;;;;;;;16.59;49.15;94888.88;5064485;28;20135;-68
2022/05/02 07:49:10;;;;;;;4.63;3.33;;;;;;;16.67;49.74;94900.66;5063835;28;20044;-70
2022/05/02 07:51:50;;;;;;;4.20;2.97;;;;;;;16.81;50.28;94901.69;5082925;28;20040;-69
2022/05/02 07:54:29;;;;;;;4.70;3.17;;;;;;;16.60;48.87;94895.72;5063803;28;20048;-69
2022/05/02 07:57:01;;;;;;;5.50;3.03;;;;;;;16.60;49.50;94895.72;5068505;28;20048;-69
2022/05/02 07:59:39;;;;;;;5.05;2.97;;;;;;;16.69;49.08;94903.03;5054198;28;20151;-68
2022/05/02 08:02:06;;;;;;;4.35;3.05;;;;;;;16.82;47.90;94905.13;5068897;28;20068;-69
2022/05/02 08:04:38;;;;;;;3.47;2.72;;;;;;;17.05;47.72;94900.31;5061655;28;20113;-69
2022/05/02 08:07:12;;;;;;;4.30;2.92;;;;;;;17.35;46.78;94910.69;5066248;28;20026;-69
2022/05/02 08:09:54;;;;;;;3.45;2.80;;;;;;;17.52;46.11;94920.09;5066602;28;20067;-69
2022/05/02 08:12:37;;;;;;;4.25;3.00;;;;;;;17.46;45.65;94921.19;5075513;28;20693;-69
2022/05/02 08:15:19;;;;;;;3.35;2.70;;;;;;;17.19;45.68;94917.09;5069069;28;20040;-69
2022/05/02 08:17:47;;;;;;;3.92;3.10;;;;;;;17.12;46.34;94916.59;5076231;28;20180;-70
2022/05/02 08:20:26;;;;;;;4.20;3.25;;;;;;;17.22;45.81;94919.19;5056903;28;20485;-69
2022/05/02 08:30:01;;;;;;;4.57;2.78;;;;;;;18.00;43.82;94920.34;5065511;28;20518;-70
2022/05/02 08:32:49;;;;;;;4.28;3.17;;;;;;;18.07;44.89;94931.34;5069131;28;20521;-70
2022/05/02 08:35:58;;;;;;;3.42;2.63;;;;;;;18.41;43.07;94925.28;5079882;28;20048;-70
2022/05/02 08:38:40;;;;;;;5.78;3.00;;;;;;;18.71;41.33;94920.78;5054064;28;20045;-70
2022/05/02 08:41:28;;;;;;;8.60;5.75;;;;;;;18.66;42.18;94920.84;5070708;28;20053;-70
2022/05/02 08:44:25;;;;;;;8.95;3.03;;;;;;;18.56;40.61;94920.94;5045216;28;20045;-70
2022/05/02 08:47:37;;;;;;;3.70;3.13;;;;;;;18.84;40.99;94917.50;5065211;28;20051;-70
2022/05/02 08:50:29;;;;;;;4.80;3.50;;;;;;;19.10;40.42;94906.66;5067652;28;20065;-70
2022/05/02 08:53:21;;;;;;;4.97;3.17;;;;;;;19.15;40.06;94906.59;5078297;28;20048;-69
2022/05/02 08:56:27;;;;;;;3.42;2.55;;;;;;;19.23;38.88;94903.34;5085210;28;20147;-70
2022/05/02 08:59:07;;;;;;;6.65;3.83;;;;;;;19.32;39.70;94902.69;5061225;28;20045;-69
2022/05/02 09:01:53;;;;;;;3.92;3.00;;;;;;;19.44;39.66;94901.19;5048108;28;20049;-70
2022/05/02 09:04:54;;;;;;;5.72;4.07;;;;;;;19.59;39.88;94900.22;5059990;28;20043;-70
2022/05/02 09:07:43;;;;;;;4.78;3.85;;;;;;;19.14;40.52;94883.09;5092956;28;20044;-70
2022/05/02 09:10:17;;;;;;;5.85;4.43;;;;;;;19.10;39.16;94867.84;5048258;28;20041;-70
2022/05/02 09:13:06;;;;;;;7.22;3.08;;;;;;;19.94;39.10;94878.84;5072476;28;20067;-70
2022/05/02 09:15:42;;;;;;;5.47;2.97;;;;;;;20.47;38.24;94864.47;5091003;28;20037;-70
2022/05/02 09:18:21;;;;;;;3.88;2.88;;;;;;;20.59;36.55;94872.72;5059607;28;20056;-69
2022/05/02 09:21:25;;;;;;;6.43;3.60;;;;;;;20.17;35.49;94872.66;5064078;28;20040;-69
2022/05/02 09:24:29;;;;;;;7.57;4.25;;;;;;;19.69;36.62;94870.22;5067321;28;20048;-69
2022/05/02 09:26:57;;;;;;;3.83;2.88;;;;;;;19.34;36.88;94871.50;5073273;28;20040;-70
2022/05/02 09:29:47;;;;;;;4.20;2.78;;;;;;;18.79;38.55;94859.47;5079898;28;20746;-69
2022/05/02 09:32:29;;;;;;;3.13;2.80;;;;;;;18.53;40.26;94859.75;5078786;28;20095;-69
2022/05/02 09:35:03;;;;;;;2.67;2.30;;;;;;;18.32;39.62;94863.66;5085528;28;20059;-69
2022/05/02 09:37:56;;;;;;;3.33;2.63;;;;;;;18.22;40.25;94863.75;5071745;28;20105;-69
2022/05/02 09:40:33;;;;;;;4.43;2.70;;;;;;;18.19;41.43;94869.59;5047066;28;20721;-68
2022/05/02 09:43:22;;;;;;;7.00;3.20;;;;;;;18.20;40.67;94868.53;5053611;28;20045;-69
2022/05/02 09:49:37;;;;;;;11.75;4.60;;;;;;;18.09;40.36;94865.97;5080046;28;20037;-70
2022/05/02 09:52:15;;;;;;;5.13;3.15;;;;;;;18.01;40.43;94869.22;5074268;28;20551;-69
2022/05/02 09:58:19;;;;;;;4.75;4.00;;;;;;;18.37;40.84;94852.31;5077482;28;20028;-69
2022/05/02 10:01:22;;;;;;;4.15;3.47;;;;;;;18.46;39.63;94854.03;5049936;28;20037;-69
2022/05/02 10:04:01;;;;;;;5.60;5.00;;;;;;;18.53;40.56;94848.44;5067305;28;20045;-69
2022/05/02 10:06:40;;;;;;;6.88;5.60;;;;;;;18.67;40.31;94837.97;5066808;28;20184;-69
2022/05/02 10:09:26;;;;;;;5.95;4.13;;;;;;;18.63;39.74;94850.16;5066781;28;20067;-70
2022/05/02 10:12:12;;;;;;;7.60;5.40;;;;;;;18.53;40.25;94840.53;5082604;28;20036;-70
2022/05/02 10:15:06;;;;;;;7.15;4.32;;;;;;;18.50;39.62;94831.31;5078423;28;20525;-69
2022/05/02 10:17:55;;;;;;;6.68;2.72;;;;;;;18.56;39.00;94836.53;5076126;28;20040;-68
2022/05/02 10:20:22;;;;;;;4.85;4.03;;;;;;;18.65;38.16;94840.91;5069825;28;20059;-69
2022/05/02 10:23:10;;;;;;;6.15;2.75;;;;;;;18.93;38.40;94829.81;5086234;28;20188;-69
2022/05/02 10:25:43;;;;;;;3.97;2.58;;;;;;;19.06;37.86;94823.81;5077409;28;20628;-70
2022/05/02 10:28:48;;;;;;;3.80;2.72;;;;;;;19.32;39.30;94826.91;5068111;28;20036;-69
2022/05/02 10:31:27;;;;;;;3.13;2.70;;;;;;;19.44;38.46;94829.88;5054489;28;20071;-69
2022/05/02 10:33:55;;;;;;;4.88;4.20;;;;;;;19.67;38.05;94822.94;5061485;28;20712;-69
2022/05/02 10:36:28;;;;;;;3.53;3.05;;;;;;;19.56;38.09;94821.53;5070362;28;20149;-71
2022/05/02 10:39:04;;;;;;;6.53;5.00;;;;;;;19.44;37.56;94823.81;5057511;28;20040;-68
2022/05/02 10:41:52;;;;;;;5.13;3.70;;;;;;;19.14;38.35;94825.84;5050102;28;20059;-69
2022/05/02 10:44:22;;;;;;;3.50;3.08;;;;;;;19.05;39.13;94812.50;5080771;28;20062;-69
2022/05/02 10:46:51;;;;;;;3.13;2.50;;;;;;;19.02;37.56;94823.59;5074552;28;21487;-68
2022/05/02 10:49:39;;;;;;;3.25;2.60;;;;;;;18.83;37.28;94820.94;5073748;28;20081;-68
2022/05/02 10:52:08;;;;;;;3.80;2.05;;;;;;;18.75;37.67;94824.19;5066723;28;20702;-67
2022/05/02 10:54:49;;;;;;;3.50;1.95;;;;;;;18.58;37.88;94819.34;5076202;28;20048;-68
2022/05/02 10:57:24;;;;;;;5.60;3.22;;;;;;;18.76;37.82;94828.38;5064351;28;20513;-68
2022/05/02 10:59:54;;;;;;;4.63;2.33;;;;;;;18.46;37.66;94827.66;5068248;28;20148;-68
2022/05/02 11:02:33;;;;;;;3.63;2.10;;;;;;;18.36;38.25;94822.50;5065614;28;20040;-68
2022/05/02 11:05:00;;;;;;;5.57;3.90;;;;;;;18.20;39.42;94834.25;5088844;28;20162;-67
2022/05/02 11:07:43;;;;;;;3.10;2.60;;;;;;;18.20;40.52;94829.75;5082034;28;20040;-66
2022/05/02 11:10:12;;;;;;;3.28;2.55;;;;;;;18.03;41.64;94830.19;5067458;28;20033;-68
2022/05/02 11:13:04;;;;;;;9.77;3.20;;;;;;;17.71;41.43;94828.84;5081284;28;20040;-67
2022/05/02 11:15:57;;;;;;;3.80;3.17;;;;;;;17.61;42.05;94828.94;5074297;28;20098;-67
2022/05/02 11:21:30;;;;;;;2.22;1.92;;;;;;;17.55;40.12;94840.56;5066900;28;20040;-67
2022/05/02 11:24:26;;;;;;;3.58;2.35;;;;;;;17.58;41.71;94825.00;5059207;28;20045;-67
2022/05/02 11:27:22;;;;;;;3.85;2.80;;;;;;;17.54;42.79;94818.72;5052032;28;20256;-67
2022/05/02 11:30:02;;;;;;;4.45;3.47;;;;;;;17.54;41.98;94820.56;5056172;28;20449;-66
2022/05/02 11:33:11;;;;;;;4.40;2.72;;;;;;;17.48;42.18;94824.28;5061563;28;20044;-67
2022/05/02 11:35:39;;;;;;;3.67;2.92;;;;;;;17.68;41.82;94826.78;5063056;28;20513;-67
2022/05/02 11:38:10;;;;;;;3.63;2.63;;;;;;;17.87;40.67;94828.75;5069977;28;20079;-67
2022/05/02 11:40:50;;;;;;;3.67;2.42;;;;;;;17.82;41.32;94819.00;5054593;28;20052;-66
2022/05/02 11:43:24;;;;;;;4.60;1.98;;;;;;;17.87;40.61;94823.50;5039642;28;20886;-67
2022/05/02 11:46:06;;;;;;;;;;;;;;;18.01;40.66;94827.06;5067754;28;20536;-67
2022/05/02 11:48:52;;;;;;;2.83;2.17;;;;;;;18.13;40.21;94819.56;5051925;28;19924;-66
2022/05/02 11:51:45;;;;;;;3.22;2.00;;;;;;;18.13;39.74;94818.75;5072124;28;20028;-67
2022/05/02 11:54:28;;;;;;;3.33;2.13;;;;;;;18.10;39.41;94820.13;5067797;28;20079;-66
2022/05/02 11:57:05;;;;;;;2.80;2.20;;;;;;;18.07;38.48;94815.41;5058737;28;20056;-67
2022/05/02 12:00:14;;;;;;;2.30;1.90;;;;;;;17.99;39.26;94813.38;5066791;28;20036;-66
2022/05/02 12:02:45;;;;;;;4.63;1.70;;;;;;;18.11;39.58;94811.16;5058160;28;20411;-67
2022/05/02 12:05:18;;;;;;;2.58;2.13;;;;;;;18.02;40.32;94802.25;5070037;28;20040;-67
2022/05/02 12:07:53;;;;;;;2.70;1.90;;;;;;;18.19;40.58;94796.59;5059822;28;20110;-67
2022/05/02 12:10:41;;;;;;;3.03;1.77;;;;;;;18.37;39.40;94792.44;5064607;28;20065;-67
2022/05/02 12:13:12;;;;;;;4.28;2.20;;;;;;;18.39;38.93;94789.53;5076375;28;20579;-67
2022/05/02 12:15:57;;;;;;;3.90;2.50;;;;;;;18.35;39.64;94794.56;5083203;28;20060;-67
2022/05/02 12:18:43;;;;;;;4.15;3.00;;;;;;;18.23;40.65;94791.53;5058110;28;20033;-67
2022/05/02 12:21:41;;;;;;;5.25;2.83;;;;;;;17.95;41.51;94791.25;5062441;28;20032;-67
2022/05/02 12:24:10;;;;;;;3.13;2.83;;;;;;;17.82;42.28;94782.13;5045045;28;20072;-67
2022/05/02 12:26:51;;;;;;;3.25;2.83;;;;;;;17.53;42.46;94784.75;5042062;28;20060;-66
2022/05/02 12:29:20;;;;;;;3.38;2.83;;;;;;;17.25;42.05;94783.63;5084486;28;20036;-66
2022/05/02 12:31:55;;;;;;;2.95;2.45;;;;;;;17.33;41.89;94781.22;5065925;28;20488;-66
2022/05/02 12:34:33;;;;;;;2.88;2.28;;;;;;;17.24;41.12;94772.31;5054010;28;20043;-66
2022/05/02 12:37:10;;;;;;;3.05;2.75;;;;;;;17.08;42.84;94768.22;5072859;28;20064;-67
2022/05/02 12:39:57;;;;;;;3.47;2.60;;;;;;;17.31;43.17;94778.06;5063641;28;20067;-67